sensor_id;sensor_type;location;lat;lon;timestamp;P1;durP1;ratioP1;P2;durP2;ratioP2
11677;SDS011;5895;41.950;24.372;2024-01-25T00:01:44;1.30;;;1.20;;
11677;SDS011;5895;41.950;24.372;2024-01-25T00:04:12;1.90;;;1.80;;
11677;SDS011;5895;41.950;24.372;2024-01-25T00:06:39;2.10;;;1.90;;
11677;SDS011;5895;41.950;24.372;2024-01-25T00:09:07;1.88;;;1.60;;
11677;SDS011;5895;41.950;24.372;2024-01-25T00:11:34;2.47;;;1.80;;
11677;SDS011;5895;41.950;24.372;2024-01-25T00:14:01;1.92;;;1.75;;
11677;SDS011;5895;41.950;24.372;2024-01-25T00:16:29;1.20;;;1.10;;
11677;SDS011;5895;41.950;24.372;2024-01-25T00:18:57;1.48;;;1.38;;
11677;SDS011;5895;41.950;24.372;2024-01-25T00:21:24;2.25;;;1.88;;
11677;SDS011;5895;41.950;24.372;2024-01-25T00:23:51;1.60;;;1.50;;
11677;SDS011;5895;41.950;24.372;2024-01-25T00:26:19;1.40;;;1.30;;
11677;SDS011;5895;41.950;24.372;2024-01-25T00:28:46;1.20;;;1.10;;
11677;SDS011;5895;41.950;24.372;2024-01-25T00:31:13;1.48;;;1.38;;
11677;SDS011;5895;41.950;24.372;2024-01-25T00:33:40;1.35;;;1.10;;
11677;SDS011;5895;41.950;24.372;2024-01-25T00:36:08;0.90;;;0.90;;
11677;SDS011;5895;41.950;24.372;2024-01-25T00:38:36;1.10;;;1.00;;
11677;SDS011;5895;41.950;24.372;2024-01-25T00:41:04;1.08;;;1.02;;
11677;SDS011;5895;41.950;24.372;2024-01-25T00:43:38;1.20;;;1.05;;
11677;SDS011;5895;41.950;24.372;2024-01-25T00:46:06;1.13;;;1.02;;
11677;SDS011;5895;41.950;24.372;2024-01-25T00:48:34;0.90;;;0.90;;
11677;SDS011;5895;41.950;24.372;2024-01-25T00:51:01;1.52;;;0.98;;
11677;SDS011;5895;41.950;24.372;2024-01-25T00:53:32;1.25;;;1.15;;
11677;SDS011;5895;41.950;24.372;2024-01-25T00:55:59;1.27;;;0.90;;
11677;SDS011;5895;41.950;24.372;2024-01-25T00:58:27;1.33;;;1.10;;
11677;SDS011;5895;41.950;24.372;2024-01-25T01:00:56;1.20;;;1.10;;
11677;SDS011;5895;41.950;24.372;2024-01-25T01:03:24;1.00;;;1.00;;
11677;SDS011;5895;41.950;24.372;2024-01-25T01:05:52;0.90;;;0.90;;
11677;SDS011;5895;41.950;24.372;2024-01-25T01:08:19;1.10;;;1.00;;
11677;SDS011;5895;41.950;24.372;2024-01-25T01:10:47;1.10;;;1.00;;
11677;SDS011;5895;41.950;24.372;2024-01-25T01:13:14;1.02;;;1.00;;
11677;SDS011;5895;41.950;24.372;2024-01-25T01:15:41;1.02;;;0.95;;
11677;SDS011;5895;41.950;24.372;2024-01-25T01:18:09;1.10;;;1.10;;
11677;SDS011;5895;41.950;24.372;2024-01-25T01:20:36;1.33;;;1.23;;
11677;SDS011;5895;41.950;24.372;2024-01-25T01:23:04;1.88;;;1.33;;
11677;SDS011;5895;41.950;24.372;2024-01-25T01:25:31;1.13;;;1.02;;
11677;SDS011;5895;41.950;24.372;2024-01-25T01:27:58;1.10;;;1.00;;
11677;SDS011;5895;41.950;24.372;2024-01-25T01:30:25;1.30;;;1.20;;
11677;SDS011;5895;41.950;24.372;2024-01-25T01:32:52;1.20;;;1.10;;
11677;SDS011;5895;41.950;24.372;2024-01-25T01:35:20;1.58;;;1.48;;
11677;SDS011;5895;41.950;24.372;2024-01-25T01:37:47;1.10;;;1.00;;
11677;SDS011;5895;41.950;24.372;2024-01-25T01:40:15;0.90;;;0.90;;
11677;SDS011;5895;41.950;24.372;2024-01-25T01:42:42;1.30;;;1.20;;
11677;SDS011;5895;41.950;24.372;2024-01-25T01:45:09;2.63;;;1.60;;
11677;SDS011;5895;41.950;24.372;2024-01-25T01:47:38;1.30;;;1.20;;
11677;SDS011;5895;41.950;24.372;2024-01-25T01:50:06;1.60;;;1.50;;
11677;SDS011;5895;41.950;24.372;2024-01-25T01:52:36;2.63;;;1.33;;
11677;SDS011;5895;41.950;24.372;2024-01-25T01:55:04;1.30;;;1.20;;
11677;SDS011;5895;41.950;24.372;2024-01-25T01:57:33;2.35;;;1.30;;
11677;SDS011;5895;41.950;24.372;2024-01-25T02:00:01;1.40;;;1.25;;
11677;SDS011;5895;41.950;24.372;2024-01-25T02:02:30;1.83;;;1.10;;
11677;SDS011;5895;41.950;24.372;2024-01-25T02:04:57;2.03;;;1.30;;
11677;SDS011;5895;41.950;24.372;2024-01-25T02:07:24;1.20;;;0.95;;
11677;SDS011;5895;41.950;24.372;2024-01-25T02:09:53;1.20;;;1.10;;
11677;SDS011;5895;41.950;24.372;2024-01-25T02:12:20;1.33;;;1.20;;
11677;SDS011;5895;41.950;24.372;2024-01-25T02:14:47;2.33;;;1.27;;
11677;SDS011;5895;41.950;24.372;2024-01-25T02:17:14;2.08;;;1.58;;
11677;SDS011;5895;41.950;24.372;2024-01-25T02:19:41;1.30;;;1.20;;
11677;SDS011;5895;41.950;24.372;2024-01-25T02:22:08;1.20;;;1.10;;
11677;SDS011;5895;41.950;24.372;2024-01-25T02:24:37;4.35;;;1.10;;
11677;SDS011;5895;41.950;24.372;2024-01-25T02:27:04;1.05;;;1.00;;
11677;SDS011;5895;41.950;24.372;2024-01-25T02:29:32;1.00;;;1.00;;
11677;SDS011;5895;41.950;24.372;2024-01-25T02:31:59;1.23;;;1.13;;
11677;SDS011;5895;41.950;24.372;2024-01-25T02:34:26;1.15;;;1.05;;
11677;SDS011;5895;41.950;24.372;2024-01-25T02:36:53;1.55;;;1.20;;
11677;SDS011;5895;41.950;24.372;2024-01-25T02:39:20;1.10;;;1.00;;
11677;SDS011;5895;41.950;24.372;2024-01-25T02:41:49;1.30;;;1.20;;
11677;SDS011;5895;41.950;24.372;2024-01-25T02:44:16;1.05;;;1.00;;
11677;SDS011;5895;41.950;24.372;2024-01-25T02:46:43;1.73;;;1.10;;
11677;SDS011;5895;41.950;24.372;2024-01-25T02:49:11;1.20;;;1.10;;
11677;SDS011;5895;41.950;24.372;2024-01-25T02:51:38;1.15;;;1.00;;
11677;SDS011;5895;41.950;24.372;2024-01-25T02:54:05;1.40;;;1.13;;
11677;SDS011;5895;41.950;24.372;2024-01-25T02:56:33;0.90;;;0.90;;
11677;SDS011;5895;41.950;24.372;2024-01-25T02:59:02;1.58;;;1.30;;
11677;SDS011;5895;41.950;24.372;2024-01-25T03:01:36;0.90;;;0.90;;
11677;SDS011;5895;41.950;24.372;2024-01-25T03:04:04;0.80;;;0.80;;
11677;SDS011;5895;41.950;24.372;2024-01-25T03:06:31;3.05;;;1.40;;
11677;SDS011;5895;41.950;24.372;2024-01-25T03:08:58;2.10;;;1.10;;
11677;SDS011;5895;41.950;24.372;2024-01-25T03:11:25;1.95;;;1.40;;
11677;SDS011;5895;41.950;24.372;2024-01-25T03:13:52;4.65;;;2.83;;
11677;SDS011;5895;41.950;24.372;2024-01-25T03:16:21;5.82;;;3.67;;
11677;SDS011;5895;41.950;24.372;2024-01-25T03:18:48;4.85;;;3.05;;
11677;SDS011;5895;41.950;24.372;2024-01-25T03:21:15;2.85;;;2.28;;
11677;SDS011;5895;41.950;24.372;2024-01-25T03:23:42;4.30;;;2.72;;
11677;SDS011;5895;41.950;24.372;2024-01-25T03:26:09;5.68;;;2.97;;
11677;SDS011;5895;41.950;24.372;2024-01-25T03:28:36;2.60;;;1.50;;
11677;SDS011;5895;41.950;24.372;2024-01-25T03:31:05;8.15;;;2.45;;
11677;SDS011;5895;41.950;24.372;2024-01-25T03:33:33;4.55;;;3.10;;
11677;SDS011;5895;41.950;24.372;2024-01-25T03:36:04;1.33;;;1.23;;
11677;SDS011;5895;41.950;24.372;2024-01-25T03:38:32;2.42;;;2.08;;
11677;SDS011;5895;41.950;24.372;2024-01-25T03:40:59;1.63;;;1.48;;
11677;SDS011;5895;41.950;24.372;2024-01-25T03:43:26;1.35;;;1.00;;
11677;SDS011;5895;41.950;24.372;2024-01-25T03:45:53;2.60;;;2.30;;
11677;SDS011;5895;41.950;24.372;2024-01-25T03:48:20;1.95;;;1.77;;
11677;SDS011;5895;41.950;24.372;2024-01-25T03:50:49;1.95;;;1.70;;
11677;SDS011;5895;41.950;24.372;2024-01-25T03:53:16;2.08;;;1.20;;
11677;SDS011;5895;41.950;24.372;2024-01-25T03:55:44;1.00;;;1.00;;
11677;SDS011;5895;41.950;24.372;2024-01-25T03:58:11;1.30;;;1.20;;
11677;SDS011;5895;41.950;24.372;2024-01-25T04:00:38;1.45;;;1.20;;
11677;SDS011;5895;41.950;24.372;2024-01-25T04:03:05;1.52;;;1.42;;
11677;SDS011;5895;41.950;24.372;2024-01-25T04:05:33;1.50;;;1.40;;
11677;SDS011;5895;41.950;24.372;2024-01-25T04:08:02;3.25;;;2.05;;
11677;SDS011;5895;41.950;24.372;2024-01-25T04:10:29;1.00;;;1.00;;
11677;SDS011;5895;41.950;24.372;2024-01-25T04:12:57;2.17;;;1.67;;
11677;SDS011;5895;41.950;24.372;2024-01-25T04:15:25;1.90;;;1.30;;
11677;SDS011;5895;41.950;24.372;2024-01-25T04:17:52;1.73;;;1.40;;
11677;SDS011;5895;41.950;24.372;2024-01-25T04:20:21;1.77;;;1.67;;
11677;SDS011;5895;41.950;24.372;2024-01-25T04:22:48;3.03;;;2.60;;
11677;SDS011;5895;41.950;24.372;2024-01-25T04:25:17;2.05;;;1.80;;
11677;SDS011;5895;41.950;24.372;2024-01-25T04:27:44;0.95;;;0.95;;
11677;SDS011;5895;41.950;24.372;2024-01-25T04:30:11;1.02;;;1.02;;
11677;SDS011;5895;41.950;24.372;2024-01-25T04:32:39;1.17;;;1.00;;
11677;SDS011;5895;41.950;24.372;2024-01-25T04:35:06;0.80;;;0.80;;
11677;SDS011;5895;41.950;24.372;2024-01-25T04:37:34;1.02;;;1.00;;
11677;SDS011;5895;41.950;24.372;2024-01-25T04:40:01;1.00;;;1.00;;
11677;SDS011;5895;41.950;24.372;2024-01-25T04:42:31;1.10;;;0.95;;
11677;SDS011;5895;41.950;24.372;2024-01-25T04:44:58;1.17;;;1.10;;
11677;SDS011;5895;41.950;24.372;2024-01-25T04:47:25;1.40;;;1.20;;
11677;SDS011;5895;41.950;24.372;2024-01-25T04:49:52;1.42;;;1.10;;
11677;SDS011;5895;41.950;24.372;2024-01-25T04:52:20;1.50;;;1.40;;
11677;SDS011;5895;41.950;24.372;2024-01-25T04:54:47;1.20;;;1.10;;
11677;SDS011;5895;41.950;24.372;2024-01-25T04:57:14;1.80;;;1.40;;
11677;SDS011;5895;41.950;24.372;2024-01-25T04:59:42;1.40;;;1.30;;
11677;SDS011;5895;41.950;24.372;2024-01-25T05:02:09;1.90;;;1.77;;
11677;SDS011;5895;41.950;24.372;2024-01-25T05:04:36;2.85;;;2.55;;
11677;SDS011;5895;41.950;24.372;2024-01-25T05:07:03;1.20;;;1.10;;
11677;SDS011;5895;41.950;24.372;2024-01-25T05:09:30;1.40;;;1.30;;
11677;SDS011;5895;41.950;24.372;2024-01-25T05:11:57;1.20;;;1.10;;
11677;SDS011;5895;41.950;24.372;2024-01-25T05:14:27;1.73;;;1.50;;
11677;SDS011;5895;41.950;24.372;2024-01-25T05:16:55;1.30;;;1.20;;
11677;SDS011;5895;41.950;24.372;2024-01-25T05:19:22;1.52;;;1.42;;
11677;SDS011;5895;41.950;24.372;2024-01-25T05:21:50;1.20;;;1.10;;
11677;SDS011;5895;41.950;24.372;2024-01-25T05:24:17;1.60;;;1.50;;
11677;SDS011;5895;41.950;24.372;2024-01-25T05:26:44;1.63;;;1.52;;
11677;SDS011;5895;41.950;24.372;2024-01-25T05:29:11;1.70;;;1.60;;
11677;SDS011;5895;41.950;24.372;2024-01-25T05:31:38;1.65;;;1.55;;
11677;SDS011;5895;41.950;24.372;2024-01-25T05:34:07;2.35;;;2.03;;
11677;SDS011;5895;41.950;24.372;2024-01-25T05:36:34;2.65;;;1.85;;
11677;SDS011;5895;41.950;24.372;2024-01-25T05:39:01;2.70;;;2.40;;
11677;SDS011;5895;41.950;24.372;2024-01-25T05:41:32;2.08;;;1.65;;
11677;SDS011;5895;41.950;24.372;2024-01-25T05:43:59;1.25;;;1.15;;
11677;SDS011;5895;41.950;24.372;2024-01-25T05:46:26;1.95;;;1.48;;
11677;SDS011;5895;41.950;24.372;2024-01-25T05:48:53;1.90;;;1.70;;
11677;SDS011;5895;41.950;24.372;2024-01-25T05:51:21;2.28;;;2.08;;
11677;SDS011;5895;41.950;24.372;2024-01-25T05:53:49;1.40;;;1.30;;
11677;SDS011;5895;41.950;24.372;2024-01-25T05:56:16;1.80;;;1.70;;
11677;SDS011;5895;41.950;24.372;2024-01-25T05:58:43;3.90;;;3.50;;
11677;SDS011;5895;41.950;24.372;2024-01-25T06:01:10;2.35;;;1.77;;
11677;SDS011;5895;41.950;24.372;2024-01-25T06:03:37;2.53;;;2.10;;
11677;SDS011;5895;41.950;24.372;2024-01-25T06:06:04;4.47;;;4.07;;
11677;SDS011;5895;41.950;24.372;2024-01-25T06:08:34;5.32;;;4.82;;
11677;SDS011;5895;41.950;24.372;2024-01-25T06:11:01;8.55;;;7.20;;
11677;SDS011;5895;41.950;24.372;2024-01-25T06:13:28;8.65;;;5.45;;
11677;SDS011;5895;41.950;24.372;2024-01-25T06:15:55;6.13;;;4.18;;
11677;SDS011;5895;41.950;24.372;2024-01-25T06:18:22;12.45;;;5.60;;
11677;SDS011;5895;41.950;24.372;2024-01-25T06:20:49;10.02;;;5.03;;
11677;SDS011;5895;41.950;24.372;2024-01-25T06:23:16;9.70;;;5.43;;
11677;SDS011;5895;41.950;24.372;2024-01-25T06:25:45;7.43;;;4.68;;
11677;SDS011;5895;41.950;24.372;2024-01-25T06:28:12;17.15;;;8.25;;
11677;SDS011;5895;41.950;24.372;2024-01-25T06:30:39;6.50;;;5.43;;
11677;SDS011;5895;41.950;24.372;2024-01-25T06:33:06;9.25;;;5.22;;
11677;SDS011;5895;41.950;24.372;2024-01-25T06:35:33;7.95;;;4.13;;
11677;SDS011;5895;41.950;24.372;2024-01-25T06:38:00;5.93;;;4.82;;
11677;SDS011;5895;41.950;24.372;2024-01-25T06:40:27;2.85;;;2.40;;
11677;SDS011;5895;41.950;24.372;2024-01-25T06:42:56;2.97;;;2.60;;
11677;SDS011;5895;41.950;24.372;2024-01-25T06:45:23;3.30;;;3.00;;
11677;SDS011;5895;41.950;24.372;2024-01-25T06:47:50;2.85;;;2.40;;
11677;SDS011;5895;41.950;24.372;2024-01-25T06:50:17;2.97;;;2.67;;
11677;SDS011;5895;41.950;24.372;2024-01-25T06:52:44;3.00;;;2.05;;
11677;SDS011;5895;41.950;24.372;2024-01-25T06:55:11;2.65;;;2.10;;
11677;SDS011;5895;41.950;24.372;2024-01-25T06:57:38;2.38;;;2.17;;
11677;SDS011;5895;41.950;24.372;2024-01-25T07:00:07;3.08;;;1.75;;
11677;SDS011;5895;41.950;24.372;2024-01-25T07:02:37;1.77;;;1.50;;
11677;SDS011;5895;41.950;24.372;2024-01-25T07:05:04;1.40;;;1.20;;
11677;SDS011;5895;41.950;24.372;2024-01-25T07:07:32;2.13;;;1.92;;
11677;SDS011;5895;41.950;24.372;2024-01-25T07:09:59;1.85;;;1.50;;
11677;SDS011;5895;41.950;24.372;2024-01-25T07:12:26;2.00;;;1.67;;
11677;SDS011;5895;41.950;24.372;2024-01-25T07:14:53;2.35;;;1.73;;
11677;SDS011;5895;41.950;24.372;2024-01-25T07:17:21;1.92;;;1.73;;
11677;SDS011;5895;41.950;24.372;2024-01-25T07:19:49;1.30;;;1.20;;
11677;SDS011;5895;41.950;24.372;2024-01-25T07:22:16;1.55;;;1.40;;
11677;SDS011;5895;41.950;24.372;2024-01-25T07:24:43;1.88;;;1.52;;
11677;SDS011;5895;41.950;24.372;2024-01-25T07:27:11;1.95;;;1.60;;
11677;SDS011;5895;41.950;24.372;2024-01-25T07:29:38;1.88;;;1.70;;
11677;SDS011;5895;41.950;24.372;2024-01-25T07:32:05;1.52;;;1.40;;
11677;SDS011;5895;41.950;24.372;2024-01-25T07:34:34;2.17;;;1.67;;
11677;SDS011;5895;41.950;24.372;2024-01-25T07:37:02;8.25;;;5.97;;
11677;SDS011;5895;41.950;24.372;2024-01-25T07:39:30;11.02;;;7.30;;
11677;SDS011;5895;41.950;24.372;2024-01-25T07:41:57;2.28;;;2.08;;
11677;SDS011;5895;41.950;24.372;2024-01-25T07:44:24;5.90;;;4.30;;
11677;SDS011;5895;41.950;24.372;2024-01-25T07:46:51;2.63;;;2.13;;
11677;SDS011;5895;41.950;24.372;2024-01-25T07:49:18;1.98;;;1.70;;
11677;SDS011;5895;41.950;24.372;2024-01-25T07:51:46;2.78;;;1.50;;
11677;SDS011;5895;41.950;24.372;2024-01-25T07:54:13;3.63;;;1.77;;
11677;SDS011;5895;41.950;24.372;2024-01-25T07:56:41;3.97;;;1.70;;
11677;SDS011;5895;41.950;24.372;2024-01-25T07:59:08;3.90;;;2.83;;
11677;SDS011;5895;41.950;24.372;2024-01-25T08:01:36;3.92;;;2.20;;
11677;SDS011;5895;41.950;24.372;2024-01-25T08:04:03;4.82;;;2.25;;
11677;SDS011;5895;41.950;24.372;2024-01-25T08:06:31;3.88;;;2.10;;
11677;SDS011;5895;41.950;24.372;2024-01-25T08:08:59;3.08;;;2.00;;
11677;SDS011;5895;41.950;24.372;2024-01-25T08:11:28;2.35;;;1.88;;
11677;SDS011;5895;41.950;24.372;2024-01-25T08:13:55;3.17;;;2.20;;
11677;SDS011;5895;41.950;24.372;2024-01-25T08:16:22;3.33;;;2.47;;
11677;SDS011;5895;41.950;24.372;2024-01-25T08:18:50;3.33;;;2.17;;
11677;SDS011;5895;41.950;24.372;2024-01-25T08:21:17;4.47;;;2.10;;
11677;SDS011;5895;41.950;24.372;2024-01-25T08:23:44;2.55;;;2.13;;
11677;SDS011;5895;41.950;24.372;2024-01-25T08:26:13;3.15;;;2.05;;
11677;SDS011;5895;41.950;24.372;2024-01-25T08:28:40;3.28;;;2.28;;
11677;SDS011;5895;41.950;24.372;2024-01-25T08:31:08;3.88;;;2.20;;
11677;SDS011;5895;41.950;24.372;2024-01-25T08:33:35;3.78;;;2.50;;
11677;SDS011;5895;41.950;24.372;2024-01-25T08:36:03;2.95;;;2.20;;
11677;SDS011;5895;41.950;24.372;2024-01-25T08:38:32;3.40;;;2.53;;
11677;SDS011;5895;41.950;24.372;2024-01-25T08:40:59;5.65;;;3.20;;
11677;SDS011;5895;41.950;24.372;2024-01-25T08:43:27;4.18;;;2.72;;
11677;SDS011;5895;41.950;24.372;2024-01-25T08:45:54;3.13;;;2.22;;
11677;SDS011;5895;41.950;24.372;2024-01-25T08:48:22;4.28;;;2.45;;
11677;SDS011;5895;41.950;24.372;2024-01-25T08:50:49;1.95;;;1.80;;
11677;SDS011;5895;41.950;24.372;2024-01-25T08:53:18;2.92;;;2.05;;
11677;SDS011;5895;41.950;24.372;2024-01-25T08:55:47;4.05;;;2.55;;
11677;SDS011;5895;41.950;24.372;2024-01-25T08:58:14;3.60;;;2.40;;
11677;SDS011;5895;41.950;24.372;2024-01-25T09:00:42;4.07;;;2.60;;
11677;SDS011;5895;41.950;24.372;2024-01-25T09:03:10;4.35;;;2.15;;
11677;SDS011;5895;41.950;24.372;2024-01-25T09:05:37;4.20;;;2.13;;
11677;SDS011;5895;41.950;24.372;2024-01-25T09:08:10;2.22;;;1.67;;
11677;SDS011;5895;41.950;24.372;2024-01-25T09:10:38;3.05;;;2.00;;
11677;SDS011;5895;41.950;24.372;2024-01-25T09:13:05;4.88;;;2.20;;
11677;SDS011;5895;41.950;24.372;2024-01-25T09:15:32;3.78;;;1.92;;
11677;SDS011;5895;41.950;24.372;2024-01-25T09:18:01;4.38;;;2.38;;
11677;SDS011;5895;41.950;24.372;2024-01-25T09:20:28;2.25;;;2.00;;
11677;SDS011;5895;41.950;24.372;2024-01-25T09:22:55;3.22;;;1.90;;
11677;SDS011;5895;41.950;24.372;2024-01-25T09:25:22;3.22;;;1.90;;
11677;SDS011;5895;41.950;24.372;2024-01-25T09:27:49;1.67;;;1.55;;
11677;SDS011;5895;41.950;24.372;2024-01-25T09:30:16;4.88;;;2.17;;
11677;SDS011;5895;41.950;24.372;2024-01-25T09:32:44;5.35;;;2.00;;
11677;SDS011;5895;41.950;24.372;2024-01-25T09:35:12;4.25;;;1.92;;
11677;SDS011;5895;41.950;24.372;2024-01-25T09:37:40;5.03;;;1.98;;
11677;SDS011;5895;41.950;24.372;2024-01-25T09:40:07;2.67;;;1.70;;
11677;SDS011;5895;41.950;24.372;2024-01-25T09:42:35;3.75;;;1.95;;
11677;SDS011;5895;41.950;24.372;2024-01-25T09:45:02;3.28;;;1.98;;
11677;SDS011;5895;41.950;24.372;2024-01-25T09:47:33;3.88;;;2.05;;
11677;SDS011;5895;41.950;24.372;2024-01-25T09:50:00;4.00;;;1.80;;
11677;SDS011;5895;41.950;24.372;2024-01-25T09:52:29;4.45;;;1.95;;
11677;SDS011;5895;41.950;24.372;2024-01-25T09:54:57;4.47;;;2.60;;
11677;SDS011;5895;41.950;24.372;2024-01-25T09:57:25;4.40;;;2.10;;
11677;SDS011;5895;41.950;24.372;2024-01-25T09:59:54;3.92;;;2.42;;
11677;SDS011;5895;41.950;24.372;2024-01-25T10:02:22;2.95;;;2.22;;
11677;SDS011;5895;41.950;24.372;2024-01-25T10:04:49;5.22;;;2.60;;
11677;SDS011;5895;41.950;24.372;2024-01-25T10:07:17;5.78;;;2.60;;
11677;SDS011;5895;41.950;24.372;2024-01-25T10:10:03;4.40;;;2.50;;
11677;SDS011;5895;41.950;24.372;2024-01-25T10:12:32;3.92;;;2.55;;
11677;SDS011;5895;41.950;24.372;2024-01-25T10:14:59;6.65;;;3.03;;
11677;SDS011;5895;41.950;24.372;2024-01-25T10:17:27;5.47;;;3.00;;
11677;SDS011;5895;41.950;24.372;2024-01-25T10:19:55;4.20;;;2.45;;
11677;SDS011;5895;41.950;24.372;2024-01-25T10:22:22;4.55;;;2.45;;
11677;SDS011;5895;41.950;24.372;2024-01-25T10:24:50;4.68;;;2.00;;
11677;SDS011;5895;41.950;24.372;2024-01-25T10:27:18;3.80;;;2.20;;
11677;SDS011;5895;41.950;24.372;2024-01-25T10:29:46;4.82;;;2.50;;
11677;SDS011;5895;41.950;24.372;2024-01-25T10:32:13;5.25;;;2.55;;
11677;SDS011;5895;41.950;24.372;2024-01-25T10:34:41;6.30;;;2.03;;
11677;SDS011;5895;41.950;24.372;2024-01-25T10:37:09;4.63;;;2.28;;
11677;SDS011;5895;41.950;24.372;2024-01-25T10:39:41;5.38;;;2.50;;
11677;SDS011;5895;41.950;24.372;2024-01-25T10:42:10;5.40;;;2.20;;
11677;SDS011;5895;41.950;24.372;2024-01-25T10:44:37;8.65;;;3.00;;
11677;SDS011;5895;41.950;24.372;2024-01-25T10:47:05;5.13;;;2.65;;
11677;SDS011;5895;41.950;24.372;2024-01-25T10:49:33;5.68;;;2.80;;
11677;SDS011;5895;41.950;24.372;2024-01-25T10:52:03;4.50;;;2.50;;
11677;SDS011;5895;41.950;24.372;2024-01-25T10:54:32;6.97;;;3.80;;
11677;SDS011;5895;41.950;24.372;2024-01-25T10:56:59;6.43;;;2.22;;
11677;SDS011;5895;41.950;24.372;2024-01-25T10:59:29;3.38;;;2.10;;
11677;SDS011;5895;41.950;24.372;2024-01-25T11:01:56;6.47;;;2.90;;
11677;SDS011;5895;41.950;24.372;2024-01-25T11:04:23;3.80;;;2.50;;
11677;SDS011;5895;41.950;24.372;2024-01-25T11:06:51;3.70;;;2.22;;
11677;SDS011;5895;41.950;24.372;2024-01-25T11:09:19;4.68;;;2.28;;
11677;SDS011;5895;41.950;24.372;2024-01-25T11:11:47;4.30;;;2.10;;
11677;SDS011;5895;41.950;24.372;2024-01-25T11:14:15;4.93;;;2.40;;
11677;SDS011;5895;41.950;24.372;2024-01-25T11:16:44;4.43;;;2.85;;
11677;SDS011;5895;41.950;24.372;2024-01-25T11:19:18;7.95;;;3.13;;
11677;SDS011;5895;41.950;24.372;2024-01-25T11:21:47;5.43;;;2.97;;
11677;SDS011;5895;41.950;24.372;2024-01-25T11:24:15;3.88;;;2.47;;
11677;SDS011;5895;41.950;24.372;2024-01-25T11:26:43;4.90;;;2.53;;
11677;SDS011;5895;41.950;24.372;2024-01-25T11:29:12;4.90;;;2.72;;
11677;SDS011;5895;41.950;24.372;2024-01-25T11:31:41;4.85;;;2.85;;
11677;SDS011;5895;41.950;24.372;2024-01-25T11:34:10;5.25;;;2.72;;
11677;SDS011;5895;41.950;24.372;2024-01-25T11:36:38;4.63;;;2.60;;
11677;SDS011;5895;41.950;24.372;2024-01-25T11:39:05;6.15;;;2.90;;
11677;SDS011;5895;41.950;24.372;2024-01-25T11:41:32;6.78;;;3.03;;
11677;SDS011;5895;41.950;24.372;2024-01-25T11:44:00;5.45;;;2.78;;
11677;SDS011;5895;41.950;24.372;2024-01-25T11:46:28;4.28;;;2.60;;
11677;SDS011;5895;41.950;24.372;2024-01-25T11:48:57;5.75;;;3.55;;
11677;SDS011;5895;41.950;24.372;2024-01-25T11:51:26;4.40;;;3.60;;
11677;SDS011;5895;41.950;24.372;2024-01-25T11:53:53;5.78;;;2.58;;
11677;SDS011;5895;41.950;24.372;2024-01-25T11:56:21;4.78;;;2.20;;
11677;SDS011;5895;41.950;24.372;2024-01-25T11:58:52;5.97;;;2.80;;
11677;SDS011;5895;41.950;24.372;2024-01-25T12:01:21;6.43;;;3.10;;
11677;SDS011;5895;41.950;24.372;2024-01-25T12:03:49;4.05;;;2.30;;
11677;SDS011;5895;41.950;24.372;2024-01-25T12:06:17;4.72;;;2.60;;
11677;SDS011;5895;41.950;24.372;2024-01-25T12:08:45;5.70;;;3.20;;
11677;SDS011;5895;41.950;24.372;2024-01-25T12:11:13;3.88;;;2.30;;
11677;SDS011;5895;41.950;24.372;2024-01-25T12:13:42;4.78;;;2.38;;
11677;SDS011;5895;41.950;24.372;2024-01-25T12:16:10;6.32;;;2.67;;
11677;SDS011;5895;41.950;24.372;2024-01-25T12:18:38;6.35;;;3.05;;
11677;SDS011;5895;41.950;24.372;2024-01-25T12:21:07;3.33;;;2.20;;
11677;SDS011;5895;41.950;24.372;2024-01-25T12:23:35;5.05;;;2.60;;
11677;SDS011;5895;41.950;24.372;2024-01-25T12:26:05;5.40;;;2.40;;
11677;SDS011;5895;41.950;24.372;2024-01-25T12:28:34;6.55;;;3.38;;
11677;SDS011;5895;41.950;24.372;2024-01-25T12:31:01;5.25;;;2.67;;
11677;SDS011;5895;41.950;24.372;2024-01-25T12:33:29;4.80;;;2.75;;
11677;SDS011;5895;41.950;24.372;2024-01-25T12:35:57;4.43;;;2.70;;
11677;SDS011;5895;41.950;24.372;2024-01-25T12:38:25;4.13;;;2.20;;
11677;SDS011;5895;41.950;24.372;2024-01-25T12:40:52;4.15;;;2.60;;
11677;SDS011;5895;41.950;24.372;2024-01-25T12:43:21;6.20;;;2.88;;
11677;SDS011;5895;41.950;24.372;2024-01-25T12:45:48;4.55;;;2.83;;
11677;SDS011;5895;41.950;24.372;2024-01-25T12:48:15;5.72;;;2.83;;
11677;SDS011;5895;41.950;24.372;2024-01-25T12:50:43;4.43;;;2.22;;
11677;SDS011;5895;41.950;24.372;2024-01-25T12:53:11;5.75;;;2.80;;
11677;SDS011;5895;41.950;24.372;2024-01-25T12:55:39;6.93;;;3.10;;
11677;SDS011;5895;41.950;24.372;2024-01-25T12:58:07;5.93;;;2.78;;
11677;SDS011;5895;41.950;24.372;2024-01-25T13:00:35;5.30;;;3.20;;
11677;SDS011;5895;41.950;24.372;2024-01-25T13:03:02;6.25;;;3.38;;
11677;SDS011;5895;41.950;24.372;2024-01-25T13:05:30;5.88;;;3.20;;
11677;SDS011;5895;41.950;24.372;2024-01-25T13:08:00;5.75;;;2.80;;
11677;SDS011;5895;41.950;24.372;2024-01-25T13:10:35;6.35;;;3.53;;
11677;SDS011;5895;41.950;24.372;2024-01-25T13:13:02;8.82;;;4.70;;
11677;SDS011;5895;41.950;24.372;2024-01-25T13:15:29;8.10;;;3.20;;
11677;SDS011;5895;41.950;24.372;2024-01-25T13:17:58;5.70;;;3.72;;
11677;SDS011;5895;41.950;24.372;2024-01-25T13:20:26;6.35;;;3.53;;
11677;SDS011;5895;41.950;24.372;2024-01-25T13:22:53;4.55;;;2.83;;
11677;SDS011;5895;41.950;24.372;2024-01-25T13:25:20;5.38;;;2.83;;
11677;SDS011;5895;41.950;24.372;2024-01-25T13:27:47;4.95;;;2.28;;
11677;SDS011;5895;41.950;24.372;2024-01-25T13:30:14;4.93;;;2.80;;
11677;SDS011;5895;41.950;24.372;2024-01-25T13:32:42;6.63;;;3.15;;
11677;SDS011;5895;41.950;24.372;2024-01-25T13:35:11;5.70;;;2.70;;
11677;SDS011;5895;41.950;24.372;2024-01-25T13:37:38;3.80;;;2.30;;
11677;SDS011;5895;41.950;24.372;2024-01-25T13:40:05;5.50;;;2.50;;
11677;SDS011;5895;41.950;24.372;2024-01-25T13:42:33;5.45;;;2.92;;
11677;SDS011;5895;41.950;24.372;2024-01-25T13:45:00;7.05;;;3.03;;
11677;SDS011;5895;41.950;24.372;2024-01-25T13:47:28;3.95;;;3.08;;
11677;SDS011;5895;41.950;24.372;2024-01-25T13:49:55;5.28;;;2.88;;
11677;SDS011;5895;41.950;24.372;2024-01-25T13:52:23;7.78;;;6.90;;
11677;SDS011;5895;41.950;24.372;2024-01-25T13:54:50;4.85;;;4.00;;
11677;SDS011;5895;41.950;24.372;2024-01-25T13:57:17;5.60;;;4.28;;
11677;SDS011;5895;41.950;24.372;2024-01-25T13:59:48;5.72;;;3.40;;
11677;SDS011;5895;41.950;24.372;2024-01-25T14:02:15;6.28;;;2.40;;
11677;SDS011;5895;41.950;24.372;2024-01-25T14:04:42;5.32;;;3.08;;
11677;SDS011;5895;41.950;24.372;2024-01-25T14:07:09;3.65;;;2.40;;
11677;SDS011;5895;41.950;24.372;2024-01-25T14:09:38;4.85;;;2.50;;
11677;SDS011;5895;41.950;24.372;2024-01-25T14:12:06;4.93;;;2.90;;
11677;SDS011;5895;41.950;24.372;2024-01-25T14:14:33;5.05;;;3.00;;
11677;SDS011;5895;41.950;24.372;2024-01-25T14:17:00;4.07;;;2.83;;
11677;SDS011;5895;41.950;24.372;2024-01-25T14:19:27;6.03;;;3.70;;
11677;SDS011;5895;41.950;24.372;2024-01-25T14:21:54;6.88;;;3.40;;
11677;SDS011;5895;41.950;24.372;2024-01-25T14:24:21;6.22;;;4.03;;
11677;SDS011;5895;41.950;24.372;2024-01-25T14:26:50;7.45;;;2.90;;
11677;SDS011;5895;41.950;24.372;2024-01-25T14:29:17;6.35;;;3.47;;
11677;SDS011;5895;41.950;24.372;2024-01-25T14:31:44;5.47;;;3.30;;
11677;SDS011;5895;41.950;24.372;2024-01-25T14:34:11;6.70;;;4.22;;
11677;SDS011;5895;41.950;24.372;2024-01-25T14:36:38;6.55;;;3.70;;
11677;SDS011;5895;41.950;24.372;2024-01-25T14:39:05;5.50;;;3.15;;
11677;SDS011;5895;41.950;24.372;2024-01-25T14:41:33;5.78;;;3.20;;
11677;SDS011;5895;41.950;24.372;2024-01-25T14:44:02;4.72;;;2.42;;
11677;SDS011;5895;41.950;24.372;2024-01-25T14:46:30;5.45;;;3.08;;
11677;SDS011;5895;41.950;24.372;2024-01-25T14:48:57;6.18;;;3.30;;
11677;SDS011;5895;41.950;24.372;2024-01-25T14:51:24;4.43;;;2.60;;